createdAt,value
2017-09-15T00:01:38.315Z,12.73
2017-09-15T00:04:11.029Z,12.71
2017-09-15T00:06:43.094Z,12.70
2017-09-15T00:09:26.068Z,12.71
2017-09-15T00:11:58.766Z,12.70
2017-09-15T00:14:31.567Z,12.68
2017-09-15T00:17:04.041Z,12.67
2017-09-15T00:19:38.249Z,12.65
2017-09-15T00:22:10.317Z,12.64
2017-09-15T00:24:42.990Z,12.63
2017-09-15T00:27:16.283Z,12.61
2017-09-15T00:29:48.286Z,12.61
2017-09-15T00:32:21.443Z,12.60
2017-09-15T00:34:54.452Z,12.59
2017-09-15T00:37:25.418Z,12.61
2017-09-15T00:40:02.276Z,12.61
2017-09-15T00:42:36.105Z,12.60
2017-09-15T00:45:08.522Z,12.61
2017-09-15T00:47:40.380Z,12.62
2017-09-15T00:50:09.565Z,12.62
2017-09-15T00:52:42.505Z,12.60
2017-09-15T00:55:16.244Z,12.61
2017-09-15T00:57:52.517Z,12.60
2017-09-15T01:00:23.670Z,12.60
2017-09-15T01:02:56.367Z,12.62
2017-09-15T01:05:29.820Z,12.58
2017-09-15T01:08:01.165Z,12.58
2017-09-15T01:10:35.217Z,12.59
2017-09-15T01:13:08.586Z,12.58
2017-09-15T01:15:42.105Z,12.59
2017-09-15T01:18:13.114Z,12.59
2017-09-15T01:20:45.821Z,12.59
2017-09-15T01:23:19.472Z,12.60
2017-09-15T01:25:51.466Z,12.61
2017-09-15T01:28:24.331Z,12.60
2017-09-15T01:30:55.372Z,12.61
2017-09-15T01:33:26.664Z,12.61
2017-09-15T01:35:58.355Z,12.63
2017-09-15T01:38:32.098Z,12.66
2017-09-15T01:41:04.868Z,12.64
2017-09-15T01:43:38.092Z,12.64
2017-09-15T01:46:11.599Z,12.65
2017-09-15T01:48:43.787Z,12.67
2017-09-15T01:51:16.533Z,12.68
2017-09-15T01:53:47.691Z,12.65
2017-09-15T01:56:19.907Z,12.63
2017-09-15T01:58:53.811Z,12.62
2017-09-15T02:01:26.343Z,12.61
2017-09-15T02:04:04.351Z,12.60
2017-09-15T02:06:39.321Z,12.59
2017-09-15T02:09:13.233Z,12.58
2017-09-15T02:11:49.060Z,12.57
2017-09-15T02:14:20.333Z,12.55
2017-09-15T02:16:51.967Z,12.54
2017-09-15T02:19:26.632Z,12.54
2017-09-15T02:21:59.175Z,12.52
2017-09-15T02:24:31.623Z,12.51
2017-09-15T02:27:05.633Z,12.53
2017-09-15T02:29:36.017Z,12.53
2017-09-15T02:32:06.236Z,12.57
2017-09-15T02:34:35.825Z,12.57
2017-09-15T02:37:10.113Z,12.51
2017-09-15T02:39:42.392Z,12.52
2017-09-15T02:42:14.451Z,12.49
2017-09-15T02:44:47.717Z,12.51
2017-09-15T02:47:19.431Z,12.53
2017-09-15T02:49:51.422Z,12.51
2017-09-15T02:52:22.995Z,12.51
2017-09-15T02:54:55.543Z,12.52
2017-09-15T02:57:28.231Z,12.50
2017-09-15T03:00:01.862Z,12.48
2017-09-15T03:02:33.850Z,12.46
2017-09-15T03:05:06.183Z,12.44
2017-09-15T03:07:37.779Z,12.43
2017-09-15T03:10:11.529Z,12.41
2017-09-15T03:12:45.000Z,12.38
2017-09-15T03:15:16.937Z,12.38
2017-09-15T03:17:49.383Z,12.36
2017-09-15T03:20:20.310Z,12.34
2017-09-15T03:22:52.052Z,12.33
2017-09-15T03:25:23.504Z,12.32
2017-09-15T03:27:55.433Z,12.29
2017-09-15T03:30:27.920Z,12.29
2017-09-15T03:33:00.579Z,12.27
2017-09-15T03:35:34.527Z,12.27
2017-09-15T03:38:05.146Z,12.24
2017-09-15T03:40:40.256Z,12.22
2017-09-15T03:43:13.660Z,12.20
2017-09-15T03:45:46.544Z,12.20
2017-09-15T03:48:18.810Z,12.18
2017-09-15T03:50:51.627Z,12.15
2017-09-15T03:53:25.887Z,12.11
2017-09-15T03:55:58.354Z,12.11
2017-09-15T03:58:31.584Z,12.13
2017-09-15T04:01:07.446Z,12.10
2017-09-15T04:03:38.608Z,12.09
2017-09-15T04:06:13.331Z,12.03
2017-09-15T04:08:48.070Z,12.05
2017-09-15T04:11:18.470Z,12.05
2017-09-15T04:13:51.680Z,12.02
2017-09-15T04:16:27.684Z,12.01
2017-09-15T04:18:59.606Z,11.95
2017-09-15T04:21:33.312Z,11.97
2017-09-15T04:24:06.057Z,11.97
2017-09-15T04:26:39.081Z,11.93
2017-09-15T04:29:14.798Z,11.90
2017-09-15T04:31:44.826Z,11.88
2017-09-15T04:34:15.118Z,11.89
2017-09-15T04:36:45.630Z,11.88
2017-09-15T04:39:17.236Z,11.86
2017-09-15T04:41:48.197Z,11.85
2017-09-15T04:44:20.360Z,11.81
2017-09-15T04:46:52.146Z,11.81
2017-09-15T04:49:27.247Z,11.81
2017-09-15T04:52:00.406Z,11.80
2017-09-15T04:54:32.747Z,11.78
2017-09-15T04:57:04.747Z,11.77
2017-09-15T04:59:34.999Z,11.75
2017-09-15T05:02:07.461Z,11.74
2017-09-15T05:04:41.622Z,11.75
2017-09-15T05:07:15.468Z,11.73
2017-09-15T05:09:51.411Z,11.72
2017-09-15T05:12:23.704Z,11.71
2017-09-15T05:14:57.109Z,11.70
2017-09-15T05:17:28.983Z,11.69
2017-09-15T05:20:01.780Z,11.68
2017-09-15T05:22:35.587Z,11.67
2017-09-15T05:25:09.662Z,11.64
2017-09-15T05:27:42.362Z,11.65
2017-09-15T05:30:15.383Z,11.64
2017-09-15T05:32:48.842Z,11.62
2017-09-15T05:35:20.766Z,11.61
2017-09-15T05:37:54.135Z,11.61
2017-09-15T05:40:25.757Z,11.62
2017-09-15T05:42:58.697Z,11.61
2017-09-15T05:45:31.534Z,11.61
2017-09-15T05:48:08.319Z,11.60
2017-09-15T05:50:39.301Z,11.59
2017-09-15T05:53:11.749Z,11.60
2017-09-15T05:55:42.556Z,11.60
2017-09-15T05:58:15.487Z,11.61
2017-09-15T06:00:47.967Z,11.61
2017-09-15T06:03:19.910Z,11.61
2017-09-15T06:05:53.290Z,11.62
2017-09-15T06:08:25.533Z,11.62
2017-09-15T06:10:58.679Z,11.59
2017-09-15T06:13:35.244Z,11.56
2017-09-15T06:16:07.981Z,11.60
2017-09-15T06:18:39.874Z,11.64
2017-09-15T06:21:11.796Z,11.60
2017-09-15T06:23:43.405Z,11.62
2017-09-15T06:26:14.916Z,11.61
2017-09-15T06:28:46.947Z,11.61
2017-09-15T06:31:21.478Z,11.60
2017-09-15T06:33:53.993Z,11.62
2017-09-15T06:36:25.130Z,11.63
2017-09-15T06:38:56.746Z,11.66
2017-09-15T06:41:30.996Z,11.68
2017-09-15T06:44:03.586Z,11.68
2017-09-15T06:46:36.488Z,11.69
2017-09-15T06:49:08.115Z,11.71
2017-09-15T06:51:39.576Z,11.73
2017-09-15T06:54:12.107Z,11.75
2017-09-15T06:56:43.113Z,11.77
2017-09-15T06:59:13.366Z,11.80
2017-09-15T07:01:45.698Z,11.81
2017-09-15T07:04:18.633Z,11.84
2017-09-15T07:06:50.231Z,11.87
2017-09-15T07:09:23.126Z,11.91
2017-09-15T07:11:55.511Z,11.93
2017-09-15T07:14:28.634Z,11.98
2017-09-15T07:17:02.194Z,12.01
2017-09-15T07:19:35.962Z,12.04
2017-09-15T07:22:08.338Z,12.06
2017-09-15T07:24:42.806Z,12.08
2017-09-15T07:27:15.808Z,12.12
2017-09-15T07:29:47.231Z,12.12
2017-09-15T07:32:19.247Z,12.14
2017-09-15T07:34:51.674Z,12.15
2017-09-15T07:37:24.839Z,12.17
2017-09-15T07:39:59.235Z,12.19
2017-09-15T07:42:30.999Z,12.21
2017-09-15T07:45:05.940Z,12.23
2017-09-15T07:47:38.572Z,12.25
2017-09-15T07:50:10.906Z,12.27
2017-09-15T07:52:44.651Z,12.28
2017-09-15T07:55:21.343Z,12.33
2017-09-15T07:57:53.592Z,12.35
2017-09-15T08:00:26.688Z,12.40
2017-09-15T08:02:58.785Z,12.43
2017-09-15T08:05:35.034Z,12.46
2017-09-15T08:08:08.955Z,12.49
2017-09-15T08:10:39.808Z,12.53
2017-09-15T08:13:12.880Z,12.57
2017-09-15T08:15:42.612Z,12.59
2017-09-15T08:18:15.682Z,12.63
2017-09-15T08:20:47.929Z,12.67
2017-09-15T08:23:21.090Z,12.69
2017-09-15T08:25:53.249Z,12.73
2017-09-15T08:28:26.352Z,12.77
2017-09-15T08:30:57.665Z,12.82
2017-09-15T08:33:31.725Z,12.88
2017-09-15T08:36:01.957Z,12.91
2017-09-15T08:38:37.203Z,12.98
2017-09-15T08:41:10.315Z,13.02
2017-09-15T08:43:45.096Z,13.06
2017-09-15T08:46:18.515Z,13.13
2017-09-15T08:48:50.013Z,13.17
2017-09-15T08:51:25.000Z,13.22
2017-09-15T08:54:00.124Z,13.28
2017-09-15T08:56:31.738Z,13.34
2017-09-15T08:59:03.664Z,13.41
2017-09-15T09:01:38.209Z,13.46
2017-09-15T09:04:10.297Z,13.52
2017-09-15T09:06:43.483Z,13.60
2017-09-15T09:09:14.827Z,13.64
2017-09-15T09:11:45.986Z,13.71
2017-09-15T09:14:19.042Z,13.76
2017-09-15T09:16:47.712Z,13.82
2017-09-15T09:19:16.360Z,13.89
2017-09-15T09:21:49.792Z,13.95
2017-09-15T09:24:26.109Z,13.99
2017-09-15T09:26:59.755Z,14.05
2017-09-15T09:29:31.095Z,14.08
2017-09-15T09:32:02.755Z,14.14
2017-09-15T09:37:23.184Z,14.18
2017-09-15T09:39:56.227Z,14.22
2017-09-15T09:42:30.987Z,14.23
2017-09-15T09:45:05.011Z,14.25
2017-09-15T09:47:38.091Z,14.30
2017-09-15T09:50:12.028Z,14.30
2017-09-15T09:52:45.158Z,14.32
2017-09-15T09:55:17.626Z,14.35
2017-09-15T09:57:50.322Z,14.39
2017-09-15T10:00:24.091Z,14.40
2017-09-15T10:02:58.112Z,14.44
2017-09-15T10:05:37.075Z,14.50
2017-09-15T10:08:10.590Z,14.53
2017-09-15T10:10:44.869Z,14.56
2017-09-15T10:13:18.102Z,14.60
2017-09-15T10:15:50.232Z,14.61
2017-09-15T10:18:23.647Z,14.61
2017-09-15T10:20:54.888Z,14.61
2017-09-15T10:23:26.079Z,14.61
2017-09-15T10:25:58.890Z,14.61
2017-09-15T10:28:35.262Z,14.63
2017-09-15T10:31:08.597Z,14.65
2017-09-15T10:33:45.566Z,14.68
2017-09-15T10:36:18.001Z,14.67
2017-09-15T10:38:50.708Z,14.68
2017-09-15T10:41:24.394Z,14.69
2017-09-15T10:43:58.489Z,14.71
2017-09-15T10:46:30.445Z,14.71
2017-09-15T10:49:01.715Z,14.73
2017-09-15T10:51:34.874Z,14.72
2017-09-15T10:54:06.430Z,14.71
2017-09-15T10:56:39.338Z,14.73
2017-09-15T10:59:16.870Z,14.74
2017-09-15T11:01:48.362Z,14.74
2017-09-15T11:04:23.066Z,14.81
2017-09-15T11:06:56.093Z,14.83
2017-09-15T11:09:26.991Z,14.83
2017-09-15T11:11:59.983Z,14.83
2017-09-15T11:14:36.532Z,14.83
2017-09-15T11:17:10.102Z,14.84
2017-09-15T11:19:43.311Z,14.87
2017-09-15T11:22:14.850Z,14.89
2017-09-15T11:24:45.200Z,14.91
2017-09-15T11:27:18.255Z,14.90
2017-09-15T11:29:50.467Z,14.91
2017-09-15T11:32:21.707Z,14.95
2017-09-15T11:34:54.553Z,14.96
2017-09-15T11:37:27.279Z,14.96
2017-09-15T11:40:01.926Z,14.99
2017-09-15T11:42:35.033Z,15.02
2017-09-15T11:45:10.394Z,15.02
2017-09-15T11:47:44.642Z,15.07
2017-09-15T11:50:18.328Z,15.09
2017-09-15T11:52:52.227Z,15.09
2017-09-15T11:55:25.428Z,15.11
2017-09-15T11:57:57.617Z,15.13
2017-09-15T12:00:29.790Z,15.16
2017-09-15T12:03:01.440Z,15.21
2017-09-15T12:05:35.192Z,15.23
2017-09-15T12:08:07.856Z,15.26
2017-09-15T12:10:40.548Z,15.30
2017-09-15T12:13:16.101Z,15.31
2017-09-15T12:15:48.835Z,15.33
2017-09-15T12:18:21.449Z,15.34
2017-09-15T12:20:54.078Z,15.36
2017-09-15T12:23:28.076Z,15.39
2017-09-15T12:26:03.739Z,15.42
2017-09-15T12:28:38.209Z,15.46
2017-09-15T12:31:08.900Z,15.43
2017-09-15T12:33:41.677Z,15.48
2017-09-15T12:36:13.678Z,15.47
2017-09-15T12:38:45.497Z,15.51
2017-09-15T12:41:16.753Z,15.48
2017-09-15T12:43:50.265Z,15.50
2017-09-15T12:46:24.769Z,15.48
2017-09-15T12:48:59.243Z,15.51
2017-09-15T12:51:33.711Z,15.53
2017-09-15T12:54:06.727Z,15.53
2017-09-15T12:56:39.699Z,15.53
2017-09-15T12:59:16.605Z,15.54
2017-09-15T13:01:48.970Z,15.57
2017-09-15T13:04:21.539Z,15.58
2017-09-15T13:06:54.173Z,15.60
2017-09-15T13:09:25.880Z,15.61
2017-09-15T13:11:58.684Z,15.63
2017-09-15T13:14:33.752Z,15.63
2017-09-15T13:17:09.607Z,15.65
2017-09-15T13:19:42.037Z,15.67
2017-09-15T13:22:15.267Z,15.69
2017-09-15T13:24:49.385Z,15.73
2017-09-15T13:27:21.106Z,15.76
2017-09-15T13:29:54.602Z,15.76
2017-09-15T13:32:26.246Z,15.78
2017-09-15T13:35:00.565Z,15.82
2017-09-15T13:37:33.150Z,15.80
2017-09-15T13:40:07.162Z,15.84
2017-09-15T13:42:38.292Z,15.86
2017-09-15T13:45:08.912Z,15.90
2017-09-15T13:47:42.195Z,15.90
2017-09-15T13:50:13.917Z,15.91
2017-09-15T13:52:46.605Z,15.93
2017-09-15T13:55:19.746Z,15.94
2017-09-15T13:57:50.637Z,15.98
2017-09-15T14:00:24.796Z,15.98
2017-09-15T14:02:59.039Z,15.99
2017-09-15T14:05:31.119Z,15.99
2017-09-15T14:08:01.420Z,15.99
2017-09-15T14:10:37.652Z,15.97
2017-09-15T14:13:08.288Z,15.98
2017-09-15T14:15:40.361Z,15.97
2017-09-15T14:18:11.827Z,15.95
2017-09-15T14:20:44.294Z,15.93
2017-09-15T14:23:17.459Z,15.91
2017-09-15T14:25:49.772Z,15.93
2017-09-15T14:28:21.497Z,15.94
2017-09-15T14:30:50.821Z,15.96
2017-09-15T14:33:23.757Z,15.98
2017-09-15T14:35:59.268Z,16.04
2017-09-15T14:38:33.854Z,16.08
2017-09-15T14:41:09.045Z,16.06
2017-09-15T14:43:45.145Z,16.09
2017-09-15T14:46:20.018Z,16.13
2017-09-15T14:48:51.224Z,16.16
2017-09-15T14:51:23.338Z,16.18
2017-09-15T14:53:58.007Z,16.19
2017-09-15T14:56:31.879Z,16.20
2017-09-15T14:59:04.891Z,16.23
2017-09-15T15:01:35.096Z,16.24
2017-09-15T15:04:07.945Z,16.25
2017-09-15T15:06:41.890Z,16.25
2017-09-15T15:09:14.467Z,16.30
2017-09-15T15:11:45.482Z,16.32
2017-09-15T15:14:17.283Z,16.33
2017-09-15T15:16:47.887Z,16.34
2017-09-15T15:19:19.729Z,16.37
2017-09-15T15:21:52.027Z,16.36
2017-09-15T15:24:24.033Z,16.34
2017-09-15T15:26:56.760Z,16.33
2017-09-15T15:29:29.790Z,16.35
2017-09-15T15:32:02.574Z,16.31
2017-09-15T15:34:34.377Z,16.30
2017-09-15T15:37:06.593Z,16.30
2017-09-15T15:39:44.068Z,16.28
2017-09-15T15:42:17.330Z,16.26
2017-09-15T15:44:47.963Z,16.24
2017-09-15T15:47:19.139Z,16.22
2017-09-15T15:49:50.620Z,16.22
2017-09-15T15:52:22.748Z,16.21
2017-09-15T15:54:55.429Z,16.20
2017-09-15T15:57:28.363Z,16.18
2017-09-15T15:59:59.768Z,16.15
2017-09-15T16:02:30.523Z,16.13
2017-09-15T16:05:01.309Z,16.13
2017-09-15T16:07:35.673Z,16.12
2017-09-15T16:10:08.483Z,16.09
2017-09-15T16:12:43.124Z,16.09
2017-09-15T16:15:15.355Z,16.08
2017-09-15T16:17:47.282Z,16.08
2017-09-15T16:20:20.118Z,16.08
2017-09-15T16:22:59.352Z,16.04
2017-09-15T16:25:31.360Z,16.03
2017-09-15T16:28:06.986Z,16.00
2017-09-15T16:30:39.297Z,15.99
2017-09-15T16:33:12.998Z,15.96
2017-09-15T16:35:45.883Z,15.93
2017-09-15T16:38:24.611Z,15.90
2017-09-15T16:41:00.790Z,15.89
2017-09-15T16:43:39.714Z,15.85
2017-09-15T16:46:17.372Z,15.82
2017-09-15T16:48:55.144Z,15.80
2017-09-15T16:51:27.593Z,15.78
2017-09-15T16:53:59.855Z,15.75
2017-09-15T16:56:31.895Z,15.71
2017-09-15T16:59:03.462Z,15.70
2017-09-15T17:01:38.068Z,15.67
2017-09-15T17:04:11.221Z,15.64
2017-09-15T17:06:43.823Z,15.62
2017-09-15T17:09:15.303Z,15.59
2017-09-15T17:11:47.154Z,15.55
2017-09-15T17:14:18.641Z,15.54
2017-09-15T17:16:49.877Z,15.49
2017-09-15T17:19:22.410Z,15.47
2017-09-15T17:21:55.401Z,15.44
2017-09-15T17:24:28.397Z,15.41
2017-09-15T17:27:01.838Z,15.38
2017-09-15T17:29:34.769Z,15.36
2017-09-15T17:32:08.472Z,15.32
2017-09-15T17:34:42.771Z,15.29
2017-09-15T17:37:15.093Z,15.25
2017-09-15T17:39:47.705Z,15.23
2017-09-15T17:42:20.546Z,15.20
2017-09-15T17:44:52.720Z,15.17
2017-09-15T17:47:27.953Z,15.13
2017-09-15T17:50:00.388Z,15.10
2017-09-15T17:52:37.444Z,15.07
2017-09-15T17:55:15.651Z,15.03
2017-09-15T17:57:49.734Z,14.99
2017-09-15T18:00:19.153Z,14.94
2017-09-15T18:02:49.612Z,14.91
2017-09-15T18:05:19.906Z,14.86
2017-09-15T18:07:51.744Z,14.82
2017-09-15T18:10:23.455Z,14.78
2017-09-15T18:12:55.856Z,14.76
2017-09-15T18:15:28.039Z,14.76
2017-09-15T18:18:01.545Z,14.73
2017-09-15T18:20:32.622Z,14.69
2017-09-15T18:23:05.128Z,14.66
2017-09-15T18:25:37.755Z,14.63
2017-09-15T18:28:08.012Z,14.59
2017-09-15T18:30:40.257Z,14.55
2017-09-15T18:33:11.464Z,14.50
2017-09-15T18:35:49.387Z,14.46
2017-09-15T18:38:21.483Z,14.43
2017-09-15T18:40:53.460Z,14.38
2017-09-15T18:43:26.095Z,14.34
2017-09-15T18:45:59.173Z,14.29
2017-09-15T18:48:30.230Z,14.25
2017-09-15T18:51:03.934Z,14.21
2017-09-15T18:53:36.756Z,14.17
2017-09-15T18:56:10.511Z,14.12
2017-09-15T18:58:42.094Z,14.08
2017-09-15T19:01:16.995Z,14.03
2017-09-15T19:03:48.680Z,14.01
2017-09-15T19:06:20.444Z,13.97
2017-09-15T19:08:52.933Z,13.94
2017-09-15T19:11:23.742Z,13.89
2017-09-15T19:13:57.177Z,13.86
2017-09-15T19:16:30.327Z,13.83
2017-09-15T19:19:04.168Z,13.79
2017-09-15T19:21:36.708Z,13.74
2017-09-15T19:24:08.684Z,13.71
2017-09-15T19:26:44.743Z,13.68
2017-09-15T19:29:18.829Z,13.65
2017-09-15T19:31:51.439Z,13.61
2017-09-15T19:34:23.387Z,13.57
2017-09-15T19:37:03.346Z,13.54
2017-09-15T19:39:35.703Z,13.50
2017-09-15T19:42:10.797Z,13.47
2017-09-15T19:44:43.452Z,13.43
2017-09-15T19:47:20.888Z,13.41
2017-09-15T19:49:51.808Z,13.37
2017-09-15T19:52:25.224Z,13.34
2017-09-15T19:54:56.766Z,13.32
2017-09-15T19:57:32.882Z,13.29
2017-09-15T20:00:06.506Z,13.27
2017-09-15T20:02:38.374Z,13.24
2017-09-15T20:05:09.892Z,13.22
2017-09-15T20:07:43.401Z,13.18
2017-09-15T20:10:15.514Z,13.15
2017-09-15T20:12:47.564Z,13.11
2017-09-15T20:15:20.281Z,13.10
2017-09-15T20:17:55.455Z,13.07
2017-09-15T20:20:29.460Z,13.06
2017-09-15T20:23:01.834Z,13.03
2017-09-15T20:25:33.727Z,13.00
2017-09-15T20:28:05.846Z,12.96
2017-09-15T20:30:37.531Z,12.96
2017-09-15T20:33:10.317Z,12.91
2017-09-15T20:35:43.694Z,12.89
2017-09-15T20:38:17.479Z,12.87
2017-09-15T20:40:50.135Z,12.85
2017-09-15T20:43:22.175Z,12.82
2017-09-15T20:45:53.395Z,12.79
2017-09-15T20:48:25.693Z,12.77
2017-09-15T20:50:56.858Z,12.75
2017-09-15T20:53:29.122Z,12.71
2017-09-15T20:56:02.657Z,12.68
2017-09-15T20:58:39.127Z,12.65
2017-09-15T21:01:12.321Z,12.63
2017-09-15T21:03:45.298Z,12.59
2017-09-15T21:06:17.414Z,12.58
2017-09-15T21:08:49.442Z,12.56
2017-09-15T21:11:19.839Z,12.54
2017-09-15T21:13:51.507Z,12.50
2017-09-15T21:16:22.536Z,12.47
2017-09-15T21:18:52.291Z,12.45
2017-09-15T21:21:26.278Z,12.42
2017-09-15T21:23:59.455Z,12.40
2017-09-15T21:26:30.639Z,12.38
2017-09-15T21:29:05.724Z,12.36
2017-09-15T21:31:38.738Z,12.34
2017-09-15T21:34:10.514Z,12.32
2017-09-15T21:36:42.385Z,12.27
2017-09-15T21:39:16.437Z,12.27
2017-09-15T21:41:48.216Z,12.25
2017-09-15T21:44:22.800Z,12.23
2017-09-15T21:46:56.280Z,12.20
2017-09-15T21:49:28.953Z,12.17
2017-09-15T21:52:03.033Z,12.14
2017-09-15T21:54:36.026Z,12.13
2017-09-15T21:57:08.527Z,12.10
2017-09-15T21:59:39.214Z,12.08
2017-09-15T22:02:18.375Z,12.04
2017-09-15T22:04:49.623Z,12.04
2017-09-15T22:07:21.175Z,12.01
2017-09-15T22:09:52.923Z,11.98
2017-09-15T22:12:23.716Z,11.95
2017-09-15T22:14:55.846Z,11.94
2017-09-15T22:17:28.352Z,11.92
2017-09-15T22:20:02.663Z,11.91
2017-09-15T22:22:34.193Z,11.89
2017-09-15T22:25:05.935Z,11.86
2017-09-15T22:27:36.545Z,11.85
2017-09-15T22:30:08.165Z,11.83
2017-09-15T22:32:38.619Z,11.80
2017-09-15T22:35:10.570Z,11.76
2017-09-15T22:37:44.314Z,11.77
2017-09-15T22:40:16.784Z,11.73
2017-09-15T22:42:50.170Z,11.70
2017-09-15T22:45:22.366Z,11.69
2017-09-15T22:47:53.691Z,11.68
2017-09-15T22:50:25.666Z,11.65
2017-09-15T22:52:58.076Z,11.62
2017-09-15T22:55:32.182Z,11.61
2017-09-15T22:58:07.881Z,11.56
2017-09-15T23:00:42.680Z,11.57
2017-09-15T23:03:14.159Z,11.54
2017-09-15T23:05:47.585Z,11.51
2017-09-15T23:08:20.427Z,11.47
2017-09-15T23:10:51.649Z,11.46
2017-09-15T23:13:22.730Z,11.44
2017-09-15T23:15:55.435Z,11.43
2017-09-15T23:18:27.841Z,11.39
2017-09-15T23:21:03.898Z,11.38
2017-09-15T23:23:36.287Z,11.36
2017-09-15T23:26:07.398Z,11.33
2017-09-15T23:28:39.981Z,11.31
2017-09-15T23:31:13.404Z,11.30
2017-09-15T23:33:46.621Z,11.27
2017-09-15T23:36:18.672Z,11.25
2017-09-15T23:38:50.853Z,11.23
2017-09-15T23:41:22.802Z,11.20
2017-09-15T23:43:51.447Z,11.20
2017-09-15T23:46:20.093Z,11.15
2017-09-15T23:48:50.814Z,11.14
2017-09-15T23:51:22.038Z,11.13
2017-09-15T23:53:52.944Z,11.11
2017-09-15T23:56:24.672Z,11.09
2017-09-15T23:58:57.498Z,11.07
